sensor_id;sensor_type;location;lat;lon;timestamp;P1;durP1;ratioP1;P2;durP2;ratioP2
21729;SDS011;11027;51.030;13.812;2023-04-19T00:00:37;20.88;;;15.82;;
21729;SDS011;11027;51.030;13.812;2023-04-19T00:03:04;21.00;;;16.30;;
21729;SDS011;11027;51.030;13.812;2023-04-19T00:05:32;17.63;;;14.88;;
21729;SDS011;11027;51.030;13.812;2023-04-19T00:07:57;18.98;;;15.48;;
21729;SDS011;11027;51.030;13.812;2023-04-19T00:10:23;19.88;;;14.60;;
21729;SDS011;11027;51.030;13.812;2023-04-19T00:12:48;22.85;;;14.60;;
21729;SDS011;11027;51.030;13.812;2023-04-19T00:15:13;22.25;;;14.57;;
21729;SDS011;11027;51.030;13.812;2023-04-19T00:17:39;19.45;;;13.48;;
21729;SDS011;11027;51.030;13.812;2023-04-19T00:20:04;18.35;;;12.98;;
21729;SDS011;11027;51.030;13.812;2023-04-19T00:22:30;16.63;;;12.88;;
21729;SDS011;11027;51.030;13.812;2023-04-19T00:24:55;15.20;;;11.75;;
21729;SDS011;11027;51.030;13.812;2023-04-19T00:27:21;16.20;;;11.20;;
21729;SDS011;11027;51.030;13.812;2023-04-19T00:29:46;15.73;;;11.32;;
21729;SDS011;11027;51.030;13.812;2023-04-19T00:32:11;14.68;;;10.68;;
21729;SDS011;11027;51.030;13.812;2023-04-19T00:34:37;14.88;;;10.13;;
21729;SDS011;11027;51.030;13.812;2023-04-19T00:37:02;15.05;;;10.10;;
21729;SDS011;11027;51.030;13.812;2023-04-19T00:39:30;13.55;;;9.93;;
21729;SDS011;11027;51.030;13.812;2023-04-19T00:41:55;12.88;;;9.60;;
21729;SDS011;11027;51.030;13.812;2023-04-19T00:44:23;10.45;;;7.68;;
21729;SDS011;11027;51.030;13.812;2023-04-19T00:46:49;10.50;;;7.72;;
21729;SDS011;11027;51.030;13.812;2023-04-19T00:49:15;9.95;;;7.93;;
21729;SDS011;11027;51.030;13.812;2023-04-19T00:51:42;10.85;;;7.68;;
21729;SDS011;11027;51.030;13.812;2023-04-19T00:54:07;8.18;;;7.18;;
21729;SDS011;11027;51.030;13.812;2023-04-19T00:56:33;9.48;;;7.13;;
21729;SDS011;11027;51.030;13.812;2023-04-19T00:58:59;8.85;;;7.18;;
21729;SDS011;11027;51.030;13.812;2023-04-19T01:01:25;11.25;;;7.40;;
21729;SDS011;11027;51.030;13.812;2023-04-19T01:03:50;10.13;;;7.10;;
21729;SDS011;11027;51.030;13.812;2023-04-19T01:06:15;8.30;;;6.78;;
21729;SDS011;11027;51.030;13.812;2023-04-19T01:08:41;9.63;;;6.90;;
21729;SDS011;11027;51.030;13.812;2023-04-19T01:11:06;9.32;;;7.05;;
21729;SDS011;11027;51.030;13.812;2023-04-19T01:13:32;8.75;;;6.78;;
21729;SDS011;11027;51.030;13.812;2023-04-19T01:15:57;9.05;;;6.50;;
21729;SDS011;11027;51.030;13.812;2023-04-19T01:18:23;8.70;;;6.35;;
21729;SDS011;11027;51.030;13.812;2023-04-19T01:20:49;10.75;;;6.22;;
21729;SDS011;11027;51.030;13.812;2023-04-19T01:23:15;8.27;;;6.57;;
21729;SDS011;11027;51.030;13.812;2023-04-19T01:25:40;11.32;;;6.60;;
21729;SDS011;11027;51.030;13.812;2023-04-19T01:28:06;10.50;;;6.05;;
21729;SDS011;11027;51.030;13.812;2023-04-19T01:30:31;8.98;;;6.10;;
21729;SDS011;11027;51.030;13.812;2023-04-19T01:32:56;8.15;;;6.00;;
21729;SDS011;11027;51.030;13.812;2023-04-19T01:35:21;10.13;;;6.18;;
21729;SDS011;11027;51.030;13.812;2023-04-19T01:37:47;8.30;;;5.72;;
21729;SDS011;11027;51.030;13.812;2023-04-19T01:40:12;8.60;;;6.28;;
21729;SDS011;11027;51.030;13.812;2023-04-19T01:42:37;10.32;;;5.85;;
21729;SDS011;11027;51.030;13.812;2023-04-19T01:45:03;8.32;;;5.72;;
21729;SDS011;11027;51.030;13.812;2023-04-19T01:47:28;9.32;;;6.25;;
21729;SDS011;11027;51.030;13.812;2023-04-19T01:49:54;12.38;;;6.50;;
21729;SDS011;11027;51.030;13.812;2023-04-19T01:52:19;8.50;;;6.60;;
21729;SDS011;11027;51.030;13.812;2023-04-19T01:54:44;9.15;;;5.75;;
21729;SDS011;11027;51.030;13.812;2023-04-19T01:57:10;9.80;;;6.55;;
21729;SDS011;11027;51.030;13.812;2023-04-19T01:59:35;11.90;;;7.00;;
21729;SDS011;11027;51.030;13.812;2023-04-19T02:02:00;10.68;;;6.40;;
21729;SDS011;11027;51.030;13.812;2023-04-19T02:04:25;10.88;;;6.70;;
21729;SDS011;11027;51.030;13.812;2023-04-19T02:06:51;12.27;;;7.00;;
21729;SDS011;11027;51.030;13.812;2023-04-19T02:09:16;11.63;;;6.82;;
21729;SDS011;11027;51.030;13.812;2023-04-19T02:11:41;11.95;;;6.70;;
21729;SDS011;11027;51.030;13.812;2023-04-19T02:14:06;13.43;;;6.82;;
21729;SDS011;11027;51.030;13.812;2023-04-19T02:16:32;8.82;;;6.25;;
21729;SDS011;11027;51.030;13.812;2023-04-19T02:18:57;11.68;;;6.90;;
21729;SDS011;11027;51.030;13.812;2023-04-19T02:21:22;12.48;;;7.05;;
21729;SDS011;11027;51.030;13.812;2023-04-19T02:23:47;9.50;;;6.53;;
21729;SDS011;11027;51.030;13.812;2023-04-19T02:26:13;9.48;;;6.95;;
21729;SDS011;11027;51.030;13.812;2023-04-19T02:28:38;10.30;;;6.40;;
21729;SDS011;11027;51.030;13.812;2023-04-19T02:31:04;9.55;;;6.70;;
21729;SDS011;11027;51.030;13.812;2023-04-19T02:33:30;11.80;;;7.15;;
21729;SDS011;11027;51.030;13.812;2023-04-19T02:35:55;10.15;;;6.70;;
21729;SDS011;11027;51.030;13.812;2023-04-19T02:38:20;9.40;;;6.47;;
21729;SDS011;11027;51.030;13.812;2023-04-19T02:40:46;10.25;;;6.88;;
21729;SDS011;11027;51.030;13.812;2023-04-19T02:43:11;7.85;;;6.50;;
21729;SDS011;11027;51.030;13.812;2023-04-19T02:45:36;11.57;;;7.20;;
21729;SDS011;11027;51.030;13.812;2023-04-19T02:48:01;11.80;;;7.38;;
21729;SDS011;11027;51.030;13.812;2023-04-19T02:50:27;11.50;;;7.28;;
21729;SDS011;11027;51.030;13.812;2023-04-19T02:52:52;12.32;;;7.95;;
21729;SDS011;11027;51.030;13.812;2023-04-19T02:55:17;11.70;;;7.25;;
21729;SDS011;11027;51.030;13.812;2023-04-19T02:57:43;12.48;;;7.63;;
21729;SDS011;11027;51.030;13.812;2023-04-19T03:00:08;12.45;;;7.47;;
21729;SDS011;11027;51.030;13.812;2023-04-19T03:02:34;10.57;;;7.05;;
21729;SDS011;11027;51.030;13.812;2023-04-19T03:05:00;10.82;;;7.03;;
21729;SDS011;11027;51.030;13.812;2023-04-19T03:07:25;10.70;;;7.18;;
21729;SDS011;11027;51.030;13.812;2023-04-19T03:09:50;13.43;;;7.75;;
21729;SDS011;11027;51.030;13.812;2023-04-19T03:12:15;12.00;;;7.35;;
21729;SDS011;11027;51.030;13.812;2023-04-19T03:14:41;12.25;;;6.97;;
21729;SDS011;11027;51.030;13.812;2023-04-19T03:17:06;14.93;;;8.55;;
21729;SDS011;11027;51.030;13.812;2023-04-19T03:19:31;10.55;;;8.02;;
21729;SDS011;11027;51.030;13.812;2023-04-19T03:21:56;10.27;;;8.25;;
21729;SDS011;11027;51.030;13.812;2023-04-19T03:24:28;14.20;;;8.60;;
21729;SDS011;11027;51.030;13.812;2023-04-19T03:26:55;10.98;;;8.60;;
21729;SDS011;11027;51.030;13.812;2023-04-19T03:29:20;13.13;;;9.07;;
21729;SDS011;11027;51.030;13.812;2023-04-19T03:31:46;15.93;;;10.23;;
21729;SDS011;11027;51.030;13.812;2023-04-19T03:34:11;14.00;;;9.38;;
21729;SDS011;11027;51.030;13.812;2023-04-19T03:36:37;13.93;;;9.50;;
21729;SDS011;11027;51.030;13.812;2023-04-19T03:39:03;14.05;;;10.13;;
21729;SDS011;11027;51.030;13.812;2023-04-19T03:41:28;15.00;;;9.65;;
21729;SDS011;11027;51.030;13.812;2023-04-19T03:43:53;13.68;;;10.38;;
21729;SDS011;11027;51.030;13.812;2023-04-19T03:46:19;15.38;;;11.18;;
21729;SDS011;11027;51.030;13.812;2023-04-19T03:48:45;13.88;;;10.55;;
21729;SDS011;11027;51.030;13.812;2023-04-19T03:51:10;12.25;;;9.90;;
21729;SDS011;11027;51.030;13.812;2023-04-19T03:53:37;15.60;;;10.25;;
21729;SDS011;11027;51.030;13.812;2023-04-19T03:56:02;14.70;;;10.43;;
21729;SDS011;11027;51.030;13.812;2023-04-19T03:58:27;13.13;;;10.23;;
21729;SDS011;11027;51.030;13.812;2023-04-19T04:00:53;15.88;;;10.93;;
21729;SDS011;11027;51.030;13.812;2023-04-19T04:03:18;16.92;;;11.25;;
21729;SDS011;11027;51.030;13.812;2023-04-19T04:05:43;15.13;;;11.18;;
21729;SDS011;11027;51.030;13.812;2023-04-19T04:08:09;13.95;;;9.88;;
21729;SDS011;11027;51.030;13.812;2023-04-19T04:10:34;14.38;;;10.95;;
21729;SDS011;11027;51.030;13.812;2023-04-19T04:12:59;12.90;;;10.32;;
21729;SDS011;11027;51.030;13.812;2023-04-19T04:15:25;17.67;;;10.00;;
21729;SDS011;11027;51.030;13.812;2023-04-19T04:17:50;14.57;;;11.27;;
21729;SDS011;11027;51.030;13.812;2023-04-19T04:20:15;13.80;;;10.27;;
21729;SDS011;11027;51.030;13.812;2023-04-19T04:22:41;13.10;;;9.95;;
21729;SDS011;11027;51.030;13.812;2023-04-19T04:25:07;16.15;;;10.43;;
21729;SDS011;11027;51.030;13.812;2023-04-19T04:27:33;14.77;;;9.43;;
21729;SDS011;11027;51.030;13.812;2023-04-19T04:29:58;10.75;;;8.40;;
21729;SDS011;11027;51.030;13.812;2023-04-19T04:32:25;14.55;;;9.38;;
21729;SDS011;11027;51.030;13.812;2023-04-19T04:34:51;14.68;;;8.27;;
21729;SDS011;11027;51.030;13.812;2023-04-19T04:37:16;14.75;;;8.57;;
21729;SDS011;11027;51.030;13.812;2023-04-19T04:39:42;12.18;;;8.23;;
21729;SDS011;11027;51.030;13.812;2023-04-19T04:42:07;11.60;;;7.45;;
21729;SDS011;11027;51.030;13.812;2023-04-19T04:44:33;12.98;;;7.43;;
21729;SDS011;11027;51.030;13.812;2023-04-19T04:46:59;14.32;;;7.88;;
21729;SDS011;11027;51.030;13.812;2023-04-19T04:49:24;10.77;;;7.25;;
21729;SDS011;11027;51.030;13.812;2023-04-19T04:51:50;10.98;;;6.68;;
21729;SDS011;11027;51.030;13.812;2023-04-19T04:54:15;10.80;;;6.72;;
21729;SDS011;11027;51.030;13.812;2023-04-19T04:56:40;9.15;;;5.85;;
21729;SDS011;11027;51.030;13.812;2023-04-19T04:59:06;12.13;;;6.35;;
21729;SDS011;11027;51.030;13.812;2023-04-19T05:01:31;9.02;;;6.00;;
21729;SDS011;11027;51.030;13.812;2023-04-19T05:03:57;9.10;;;6.47;;
21729;SDS011;11027;51.030;13.812;2023-04-19T05:06:22;10.77;;;5.30;;
21729;SDS011;11027;51.030;13.812;2023-04-19T05:08:47;11.45;;;5.20;;
21729;SDS011;11027;51.030;13.812;2023-04-19T05:11:12;12.85;;;5.85;;
21729;SDS011;11027;51.030;13.812;2023-04-19T05:13:38;8.50;;;5.20;;
21729;SDS011;11027;51.030;13.812;2023-04-19T05:16:03;10.63;;;5.05;;
21729;SDS011;11027;51.030;13.812;2023-04-19T05:18:29;7.85;;;5.05;;
21729;SDS011;11027;51.030;13.812;2023-04-19T05:20:55;9.77;;;4.90;;
21729;SDS011;11027;51.030;13.812;2023-04-19T05:23:20;7.43;;;4.53;;
21729;SDS011;11027;51.030;13.812;2023-04-19T05:25:46;9.23;;;4.40;;
21729;SDS011;11027;51.030;13.812;2023-04-19T05:28:11;7.13;;;4.00;;
21729;SDS011;11027;51.030;13.812;2023-04-19T05:30:37;6.35;;;3.90;;
21729;SDS011;11027;51.030;13.812;2023-04-19T05:33:02;9.32;;;4.00;;
21729;SDS011;11027;51.030;13.812;2023-04-19T05:35:27;6.65;;;3.80;;
21729;SDS011;11027;51.030;13.812;2023-04-19T05:37:52;8.10;;;3.60;;
21729;SDS011;11027;51.030;13.812;2023-04-19T05:40:18;7.93;;;3.60;;
21729;SDS011;11027;51.030;13.812;2023-04-19T05:42:43;5.28;;;3.53;;
21729;SDS011;11027;51.030;13.812;2023-04-19T05:45:08;5.25;;;3.13;;
21729;SDS011;11027;51.030;13.812;2023-04-19T05:47:34;5.70;;;3.20;;
21729;SDS011;11027;51.030;13.812;2023-04-19T05:49:59;5.50;;;3.50;;
21729;SDS011;11027;51.030;13.812;2023-04-19T05:52:25;9.88;;;3.55;;
21729;SDS011;11027;51.030;13.812;2023-04-19T05:54:50;5.97;;;3.10;;
21729;SDS011;11027;51.030;13.812;2023-04-19T05:57:15;5.80;;;3.00;;
21729;SDS011;11027;51.030;13.812;2023-04-19T05:59:41;4.30;;;2.80;;
21729;SDS011;11027;51.030;13.812;2023-04-19T06:02:06;7.00;;;2.88;;
21729;SDS011;11027;51.030;13.812;2023-04-19T06:04:31;4.78;;;2.95;;
21729;SDS011;11027;51.030;13.812;2023-04-19T06:06:56;6.05;;;2.92;;
21729;SDS011;11027;51.030;13.812;2023-04-19T06:09:22;7.60;;;2.55;;
21729;SDS011;11027;51.030;13.812;2023-04-19T06:11:47;8.55;;;2.58;;
21729;SDS011;11027;51.030;13.812;2023-04-19T06:14:12;4.53;;;2.30;;
21729;SDS011;11027;51.030;13.812;2023-04-19T06:16:38;4.45;;;2.40;;
21729;SDS011;11027;51.030;13.812;2023-04-19T06:19:04;3.20;;;2.20;;
21729;SDS011;11027;51.030;13.812;2023-04-19T06:21:30;9.38;;;2.63;;
21729;SDS011;11027;51.030;13.812;2023-04-19T06:23:55;6.15;;;2.60;;
21729;SDS011;11027;51.030;13.812;2023-04-19T06:26:21;5.07;;;2.45;;
21729;SDS011;11027;51.030;13.812;2023-04-19T06:28:46;4.80;;;2.40;;
21729;SDS011;11027;51.030;13.812;2023-04-19T06:31:11;5.47;;;2.03;;
21729;SDS011;11027;51.030;13.812;2023-04-19T06:33:36;4.38;;;1.73;;
21729;SDS011;11027;51.030;13.812;2023-04-19T06:36:02;4.07;;;2.28;;
21729;SDS011;11027;51.030;13.812;2023-04-19T06:38:28;5.30;;;2.10;;
21729;SDS011;11027;51.030;13.812;2023-04-19T06:40:53;4.00;;;2.13;;
21729;SDS011;11027;51.030;13.812;2023-04-19T06:43:19;5.32;;;1.92;;
21729;SDS011;11027;51.030;13.812;2023-04-19T06:45:45;5.93;;;2.35;;
21729;SDS011;11027;51.030;13.812;2023-04-19T06:48:10;2.65;;;1.92;;
21729;SDS011;11027;51.030;13.812;2023-04-19T06:50:36;6.95;;;2.45;;
21729;SDS011;11027;51.030;13.812;2023-04-19T06:53:01;3.20;;;1.90;;
21729;SDS011;11027;51.030;13.812;2023-04-19T06:55:26;4.68;;;1.95;;
21729;SDS011;11027;51.030;13.812;2023-04-19T06:57:52;3.92;;;2.03;;
21729;SDS011;11027;51.030;13.812;2023-04-19T07:00:17;4.38;;;2.10;;
21729;SDS011;11027;51.030;13.812;2023-04-19T07:02:42;2.97;;;2.08;;
21729;SDS011;11027;51.030;13.812;2023-04-19T07:05:08;3.15;;;1.80;;
21729;SDS011;11027;51.030;13.812;2023-04-19T07:07:33;5.18;;;1.90;;
21729;SDS011;11027;51.030;13.812;2023-04-19T07:09:58;2.45;;;1.90;;
21729;SDS011;11027;51.030;13.812;2023-04-19T07:12:24;2.67;;;1.95;;
21729;SDS011;11027;51.030;13.812;2023-04-19T07:14:49;3.25;;;1.77;;
21729;SDS011;11027;51.030;13.812;2023-04-19T07:17:20;2.55;;;1.73;;
21729;SDS011;11027;51.030;13.812;2023-04-19T07:19:46;3.42;;;1.80;;
21729;SDS011;11027;51.030;13.812;2023-04-19T07:22:12;2.55;;;1.88;;
21729;SDS011;11027;51.030;13.812;2023-04-19T07:24:37;3.92;;;1.80;;
21729;SDS011;11027;51.030;13.812;2023-04-19T07:27:05;5.45;;;2.10;;
21729;SDS011;11027;51.030;13.812;2023-04-19T07:29:30;2.05;;;1.77;;
21729;SDS011;11027;51.030;13.812;2023-04-19T07:31:58;3.28;;;1.90;;
21729;SDS011;11027;51.030;13.812;2023-04-19T07:34:25;4.10;;;1.85;;
21729;SDS011;11027;51.030;13.812;2023-04-19T07:36:50;2.85;;;1.70;;
21729;SDS011;11027;51.030;13.812;2023-04-19T07:39:16;3.53;;;1.98;;
21729;SDS011;11027;51.030;13.812;2023-04-19T07:41:41;2.95;;;2.15;;
21729;SDS011;11027;51.030;13.812;2023-04-19T07:44:06;6.82;;;1.95;;
21729;SDS011;11027;51.030;13.812;2023-04-19T07:46:31;3.30;;;2.10;;
21729;SDS011;11027;51.030;13.812;2023-04-19T07:48:57;6.78;;;2.13;;
21729;SDS011;11027;51.030;13.812;2023-04-19T07:51:22;6.53;;;2.28;;
21729;SDS011;11027;51.030;13.812;2023-04-19T07:53:48;5.13;;;2.10;;
21729;SDS011;11027;51.030;13.812;2023-04-19T07:56:14;4.25;;;2.08;;
21729;SDS011;11027;51.030;13.812;2023-04-19T07:58:39;3.58;;;2.03;;
21729;SDS011;11027;51.030;13.812;2023-04-19T08:01:05;4.22;;;2.13;;
21729;SDS011;11027;51.030;13.812;2023-04-19T08:03:32;6.82;;;2.50;;
21729;SDS011;11027;51.030;13.812;2023-04-19T08:05:59;5.18;;;2.05;;
21729;SDS011;11027;51.030;13.812;2023-04-19T08:08:26;7.63;;;2.10;;
21729;SDS011;11027;51.030;13.812;2023-04-19T08:10:52;5.57;;;1.98;;
21729;SDS011;11027;51.030;13.812;2023-04-19T08:13:19;3.83;;;2.05;;
21729;SDS011;11027;51.030;13.812;2023-04-19T08:15:44;4.20;;;1.80;;
21729;SDS011;11027;51.030;13.812;2023-04-19T08:18:09;4.70;;;2.20;;
21729;SDS011;11027;51.030;13.812;2023-04-19T08:20:35;3.28;;;2.10;;
21729;SDS011;11027;51.030;13.812;2023-04-19T08:23:00;8.77;;;2.22;;
21729;SDS011;11027;51.030;13.812;2023-04-19T08:25:26;4.85;;;2.30;;
21729;SDS011;11027;51.030;13.812;2023-04-19T08:27:52;2.72;;;2.15;;
21729;SDS011;11027;51.030;13.812;2023-04-19T08:30:21;4.55;;;2.58;;
21729;SDS011;11027;51.030;13.812;2023-04-19T08:32:46;4.75;;;1.98;;
21729;SDS011;11027;51.030;13.812;2023-04-19T08:35:12;4.57;;;2.05;;
21729;SDS011;11027;51.030;13.812;2023-04-19T08:37:38;5.60;;;2.30;;
21729;SDS011;11027;51.030;13.812;2023-04-19T08:40:03;3.42;;;2.25;;
21729;SDS011;11027;51.030;13.812;2023-04-19T08:42:30;5.68;;;2.25;;
21729;SDS011;11027;51.030;13.812;2023-04-19T08:44:56;5.03;;;2.60;;
21729;SDS011;11027;51.030;13.812;2023-04-19T08:47:22;5.38;;;2.60;;
21729;SDS011;11027;51.030;13.812;2023-04-19T08:49:48;2.95;;;2.40;;
21729;SDS011;11027;51.030;13.812;2023-04-19T08:52:15;3.40;;;2.40;;
21729;SDS011;11027;51.030;13.812;2023-04-19T08:54:41;3.75;;;2.53;;
21729;SDS011;11027;51.030;13.812;2023-04-19T08:57:07;3.47;;;2.53;;
21729;SDS011;11027;51.030;13.812;2023-04-19T08:59:33;3.70;;;2.17;;
21729;SDS011;11027;51.030;13.812;2023-04-19T09:02:01;4.93;;;2.80;;
21729;SDS011;11027;51.030;13.812;2023-04-19T09:04:27;5.18;;;2.55;;
21729;SDS011;11027;51.030;13.812;2023-04-19T09:06:53;4.93;;;2.47;;
21729;SDS011;11027;51.030;13.812;2023-04-19T09:09:23;5.25;;;2.47;;
21729;SDS011;11027;51.030;13.812;2023-04-19T09:11:49;4.28;;;2.50;;
21729;SDS011;11027;51.030;13.812;2023-04-19T09:14:16;6.82;;;3.00;;
21729;SDS011;11027;51.030;13.812;2023-04-19T09:16:43;5.55;;;2.63;;
21729;SDS011;11027;51.030;13.812;2023-04-19T09:19:09;6.32;;;2.50;;
21729;SDS011;11027;51.030;13.812;2023-04-19T09:21:36;5.97;;;2.88;;
21729;SDS011;11027;51.030;13.812;2023-04-19T09:24:02;7.97;;;2.78;;
21729;SDS011;11027;51.030;13.812;2023-04-19T09:26:27;7.53;;;2.55;;
21729;SDS011;11027;51.030;13.812;2023-04-19T09:28:57;5.03;;;2.88;;
21729;SDS011;11027;51.030;13.812;2023-04-19T09:31:23;5.55;;;3.05;;
21729;SDS011;11027;51.030;13.812;2023-04-19T09:33:52;5.97;;;3.00;;
21729;SDS011;11027;51.030;13.812;2023-04-19T09:38:56;4.15;;;2.67;;
21729;SDS011;11027;51.030;13.812;2023-04-19T09:41:23;4.10;;;2.72;;
21729;SDS011;11027;51.030;13.812;2023-04-19T09:43:48;5.53;;;2.70;;
21729;SDS011;11027;51.030;13.812;2023-04-19T09:46:28;5.57;;;2.90;;
21729;SDS011;11027;51.030;13.812;2023-04-19T09:51:39;5.13;;;2.63;;
21729;SDS011;11027;51.030;13.812;2023-04-19T09:54:05;7.55;;;2.60;;
21729;SDS011;11027;51.030;13.812;2023-04-19T09:56:31;5.10;;;2.47;;
21729;SDS011;11027;51.030;13.812;2023-04-19T09:58:56;4.28;;;2.47;;
21729;SDS011;11027;51.030;13.812;2023-04-19T10:01:21;7.13;;;2.67;;
21729;SDS011;11027;51.030;13.812;2023-04-19T10:03:49;8.70;;;2.83;;
21729;SDS011;11027;51.030;13.812;2023-04-19T10:06:16;6.85;;;2.58;;
21729;SDS011;11027;51.030;13.812;2023-04-19T10:08:42;4.53;;;2.70;;
21729;SDS011;11027;51.030;13.812;2023-04-19T10:11:09;4.78;;;2.53;;
21729;SDS011;11027;51.030;13.812;2023-04-19T10:13:36;5.47;;;2.78;;
21729;SDS011;11027;51.030;13.812;2023-04-19T10:16:02;3.33;;;2.55;;
21729;SDS011;11027;51.030;13.812;2023-04-19T10:18:28;5.20;;;2.67;;
21729;SDS011;11027;51.030;13.812;2023-04-19T10:20:56;6.72;;;2.35;;
21729;SDS011;11027;51.030;13.812;2023-04-19T10:23:25;4.30;;;2.37;;
21729;SDS011;11027;51.030;13.812;2023-04-19T10:25:54;4.15;;;2.40;;
21729;SDS011;11027;51.030;13.812;2023-04-19T10:28:21;4.43;;;2.65;;
21729;SDS011;11027;51.030;13.812;2023-04-19T10:30:53;4.65;;;2.50;;
21729;SDS011;11027;51.030;13.812;2023-04-19T10:36:02;4.00;;;2.65;;
21729;SDS011;11027;51.030;13.812;2023-04-19T10:38:35;5.95;;;2.15;;
21729;SDS011;11027;51.030;13.812;2023-04-19T10:41:03;4.70;;;2.45;;
21729;SDS011;11027;51.030;13.812;2023-04-19T10:43:35;6.43;;;2.55;;
21729;SDS011;11027;51.030;13.812;2023-04-19T10:46:08;4.55;;;2.72;;
21729;SDS011;11027;51.030;13.812;2023-04-19T10:48:38;4.80;;;2.47;;
21729;SDS011;11027;51.030;13.812;2023-04-19T10:56:21;4.38;;;2.58;;
21729;SDS011;11027;51.030;13.812;2023-04-19T10:59:10;4.35;;;2.47;;
21729;SDS011;11027;51.030;13.812;2023-04-19T11:01:39;3.97;;;2.38;;
21729;SDS011;11027;51.030;13.812;2023-04-19T11:04:09;4.18;;;2.33;;
21729;SDS011;11027;51.030;13.812;2023-04-19T11:06:36;5.03;;;2.53;;
21729;SDS011;11027;51.030;13.812;2023-04-19T11:09:02;3.38;;;2.17;;
21729;SDS011;11027;51.030;13.812;2023-04-19T11:11:32;6.90;;;2.80;;
21729;SDS011;11027;51.030;13.812;2023-04-19T11:14:02;4.00;;;2.30;;
21729;SDS011;11027;51.030;13.812;2023-04-19T11:16:28;4.13;;;2.25;;
21729;SDS011;11027;51.030;13.812;2023-04-19T11:18:54;4.03;;;2.28;;
21729;SDS011;11027;51.030;13.812;2023-04-19T11:21:20;3.38;;;2.15;;
21729;SDS011;11027;51.030;13.812;2023-04-19T11:23:46;4.53;;;2.58;;
21729;SDS011;11027;51.030;13.812;2023-04-19T11:26:14;4.13;;;2.50;;
21729;SDS011;11027;51.030;13.812;2023-04-19T11:28:39;2.55;;;1.90;;
21729;SDS011;11027;51.030;13.812;2023-04-19T11:31:05;2.88;;;2.05;;
21729;SDS011;11027;51.030;13.812;2023-04-19T11:33:36;6.88;;;2.00;;
21729;SDS011;11027;51.030;13.812;2023-04-19T11:36:02;3.70;;;1.88;;
21729;SDS011;11027;51.030;13.812;2023-04-19T11:38:28;3.25;;;1.70;;
21729;SDS011;11027;51.030;13.812;2023-04-19T11:40:57;7.53;;;2.20;;
21729;SDS011;11027;51.030;13.812;2023-04-19T11:43:33;4.57;;;2.30;;
21729;SDS011;11027;51.030;13.812;2023-04-19T11:46:06;3.97;;;1.90;;
21729;SDS011;11027;51.030;13.812;2023-04-19T11:48:32;6.70;;;2.10;;
21729;SDS011;11027;51.030;13.812;2023-04-19T11:50:58;8.93;;;2.28;;
21729;SDS011;11027;51.030;13.812;2023-04-19T11:53:25;6.35;;;2.60;;
21729;SDS011;11027;51.030;13.812;2023-04-19T11:55:52;5.35;;;2.38;;
21729;SDS011;11027;51.030;13.812;2023-04-19T11:58:26;3.92;;;2.30;;
21729;SDS011;11027;51.030;13.812;2023-04-19T12:01:15;6.63;;;2.33;;
21729;SDS011;11027;51.030;13.812;2023-04-19T12:03:47;4.72;;;2.10;;
21729;SDS011;11027;51.030;13.812;2023-04-19T12:06:15;4.20;;;2.13;;
21729;SDS011;11027;51.030;13.812;2023-04-19T12:08:42;5.95;;;2.08;;
21729;SDS011;11027;51.030;13.812;2023-04-19T12:11:09;4.05;;;2.00;;
21729;SDS011;11027;51.030;13.812;2023-04-19T12:13:34;6.28;;;1.95;;
21729;SDS011;11027;51.030;13.812;2023-04-19T12:16:00;5.55;;;2.00;;
21729;SDS011;11027;51.030;13.812;2023-04-19T12:18:27;4.55;;;2.50;;
21729;SDS011;11027;51.030;13.812;2023-04-19T12:21:05;5.78;;;2.40;;
21729;SDS011;11027;51.030;13.812;2023-04-19T12:23:30;5.97;;;2.00;;
21729;SDS011;11027;51.030;13.812;2023-04-19T12:25:56;5.18;;;2.30;;
21729;SDS011;11027;51.030;13.812;2023-04-19T12:28:21;4.90;;;2.40;;
21729;SDS011;11027;51.030;13.812;2023-04-19T12:30:46;5.68;;;2.60;;
21729;SDS011;11027;51.030;13.812;2023-04-19T12:33:11;3.70;;;2.20;;
21729;SDS011;11027;51.030;13.812;2023-04-19T12:35:37;5.68;;;2.25;;
21729;SDS011;11027;51.030;13.812;2023-04-19T12:38:03;4.10;;;2.22;;
21729;SDS011;11027;51.030;13.812;2023-04-19T12:40:28;4.90;;;2.33;;
21729;SDS011;11027;51.030;13.812;2023-04-19T12:42:54;6.45;;;2.60;;
21729;SDS011;11027;51.030;13.812;2023-04-19T12:45:19;3.60;;;2.30;;
21729;SDS011;11027;51.030;13.812;2023-04-19T12:47:46;5.88;;;2.50;;
21729;SDS011;11027;51.030;13.812;2023-04-19T12:50:13;5.47;;;2.38;;
21729;SDS011;11027;51.030;13.812;2023-04-19T12:52:39;5.57;;;2.40;;
21729;SDS011;11027;51.030;13.812;2023-04-19T12:55:05;8.13;;;2.53;;
21729;SDS011;11027;51.030;13.812;2023-04-19T12:57:31;5.10;;;2.30;;
21729;SDS011;11027;51.030;13.812;2023-04-19T12:59:56;11.88;;;2.70;;
21729;SDS011;11027;51.030;13.812;2023-04-19T13:02:22;6.28;;;2.20;;
21729;SDS011;11027;51.030;13.812;2023-04-19T13:04:47;6.15;;;2.85;;
21729;SDS011;11027;51.030;13.812;2023-04-19T13:07:12;7.03;;;2.40;;
21729;SDS011;11027;51.030;13.812;2023-04-19T13:09:38;6.75;;;2.40;;
21729;SDS011;11027;51.030;13.812;2023-04-19T13:12:06;3.15;;;2.15;;
21729;SDS011;11027;51.030;13.812;2023-04-19T13:14:31;7.72;;;2.67;;
21729;SDS011;11027;51.030;13.812;2023-04-19T13:16:56;4.93;;;2.83;;
21729;SDS011;11027;51.030;13.812;2023-04-19T13:19:22;5.72;;;2.20;;
21729;SDS011;11027;51.030;13.812;2023-04-19T13:21:47;4.10;;;2.40;;
21729;SDS011;11027;51.030;13.812;2023-04-19T13:24:12;5.05;;;2.45;;
21729;SDS011;11027;51.030;13.812;2023-04-19T13:26:38;7.13;;;2.47;;
21729;SDS011;11027;51.030;13.812;2023-04-19T13:29:04;5.25;;;2.50;;
21729;SDS011;11027;51.030;13.812;2023-04-19T13:31:32;6.15;;;1.88;;
21729;SDS011;11027;51.030;13.812;2023-04-19T13:33:57;5.75;;;2.20;;
21729;SDS011;11027;51.030;13.812;2023-04-19T13:36:24;5.03;;;2.10;;
21729;SDS011;11027;51.030;13.812;2023-04-19T13:38:49;4.05;;;2.10;;
21729;SDS011;11027;51.030;13.812;2023-04-19T13:41:15;5.85;;;2.20;;
21729;SDS011;11027;51.030;13.812;2023-04-19T13:43:40;6.63;;;2.58;;
21729;SDS011;11027;51.030;13.812;2023-04-19T13:46:05;5.35;;;2.70;;
21729;SDS011;11027;51.030;13.812;2023-04-19T13:48:30;3.70;;;2.40;;
21729;SDS011;11027;51.030;13.812;2023-04-19T13:50:56;3.72;;;2.25;;
21729;SDS011;11027;51.030;13.812;2023-04-19T13:53:22;5.72;;;2.53;;
21729;SDS011;11027;51.030;13.812;2023-04-19T13:55:49;6.15;;;2.70;;
21729;SDS011;11027;51.030;13.812;2023-04-19T13:58:14;8.80;;;2.92;;
21729;SDS011;11027;51.030;13.812;2023-04-19T14:00:39;6.93;;;3.38;;
21729;SDS011;11027;51.030;13.812;2023-04-19T14:03:05;6.72;;;2.45;;
21729;SDS011;11027;51.030;13.812;2023-04-19T14:05:30;7.82;;;2.47;;
21729;SDS011;11027;51.030;13.812;2023-04-19T14:07:55;6.35;;;2.58;;
21729;SDS011;11027;51.030;13.812;2023-04-19T14:10:21;4.30;;;2.40;;
21729;SDS011;11027;51.030;13.812;2023-04-19T14:12:46;4.10;;;2.42;;
21729;SDS011;11027;51.030;13.812;2023-04-19T14:15:11;3.83;;;2.25;;
21729;SDS011;11027;51.030;13.812;2023-04-19T14:17:37;4.78;;;2.75;;
21729;SDS011;11027;51.030;13.812;2023-04-19T14:20:02;4.60;;;2.40;;
21729;SDS011;11027;51.030;13.812;2023-04-19T14:22:28;4.60;;;2.63;;
21729;SDS011;11027;51.030;13.812;2023-04-19T14:24:53;9.65;;;3.10;;
21729;SDS011;11027;51.030;13.812;2023-04-19T14:27:19;6.25;;;3.63;;
21729;SDS011;11027;51.030;13.812;2023-04-19T14:29:44;5.88;;;3.42;;
21729;SDS011;11027;51.030;13.812;2023-04-19T14:32:09;4.72;;;3.15;;
21729;SDS011;11027;51.030;13.812;2023-04-19T14:34:35;5.65;;;3.10;;